sensor_id;sensor_type;location;lat;lon;timestamp;pressure;altitude;pressure_sealevel;temperature;humidity
38466;BME280;24244;51.950;5.902;2023-08-21T00:00:32;102211.47;;;20.72;72.27
38466;BME280;24244;51.950;5.902;2023-08-21T00:02:59;102216.06;;;20.71;72.29
38466;BME280;24244;51.950;5.902;2023-08-21T00:05:26;102212.72;;;20.69;72.33
38466;BME280;24244;51.950;5.902;2023-08-21T00:07:53;102211.06;;;20.68;72.34
38466;BME280;24244;51.950;5.902;2023-08-21T00:10:20;102208.63;;;20.67;72.50
38466;BME280;24244;51.950;5.902;2023-08-21T00:12:48;102209.88;;;20.64;72.60
38466;BME280;24244;51.950;5.902;2023-08-21T00:15:15;102204.06;;;20.61;72.75
38466;BME280;24244;51.950;5.902;2023-08-21T00:17:43;102215.31;;;20.58;72.82
38466;BME280;24244;51.950;5.902;2023-08-21T00:20:11;102218.22;;;20.56;73.08
38466;BME280;24244;51.950;5.902;2023-08-21T00:22:38;102204.72;;;20.56;73.21
38466;BME280;24244;51.950;5.902;2023-08-21T00:25:05;102202.84;;;20.57;73.16
38466;BME280;24244;51.950;5.902;2023-08-21T00:27:32;102206.38;;;20.57;73.05
38466;BME280;24244;51.950;5.902;2023-08-21T00:30:01;102201.00;;;20.51;73.35
38466;BME280;24244;51.950;5.902;2023-08-21T00:32:28;102201.22;;;20.49;73.38
38466;BME280;24244;51.950;5.902;2023-08-21T00:34:55;102201.66;;;20.46;73.63
38466;BME280;24244;51.950;5.902;2023-08-21T00:37:22;102202.25;;;20.48;73.71
38466;BME280;24244;51.950;5.902;2023-08-21T00:39:48;102200.84;;;20.46;73.65
38466;BME280;24244;51.950;5.902;2023-08-21T00:42:16;102206.63;;;20.49;73.69
38466;BME280;24244;51.950;5.902;2023-08-21T00:44:43;102206.41;;;20.51;73.81
38466;BME280;24244;51.950;5.902;2023-08-21T00:47:11;102208.28;;;20.50;73.91
38466;BME280;24244;51.950;5.902;2023-08-21T00:49:38;102213.47;;;20.52;73.99
38466;BME280;24244;51.950;5.902;2023-08-21T00:52:06;102209.94;;;20.51;74.08
38466;BME280;24244;51.950;5.902;2023-08-21T00:54:35;102200.81;;;20.52;74.12
38466;BME280;24244;51.950;5.902;2023-08-21T00:57:02;102214.91;;;20.54;74.27
38466;BME280;24244;51.950;5.902;2023-08-21T00:59:29;102200.34;;;20.55;74.23
38466;BME280;24244;51.950;5.902;2023-08-21T01:01:56;102204.94;;;20.55;74.40
38466;BME280;24244;51.950;5.902;2023-08-21T01:04:25;102196.81;;;20.55;74.51
38466;BME280;24244;51.950;5.902;2023-08-21T01:06:52;102197.84;;;20.54;74.44
38466;BME280;24244;51.950;5.902;2023-08-21T01:09:26;102184.81;;;20.51;74.74
38466;BME280;24244;51.950;5.902;2023-08-21T01:12:03;102184.63;;;20.46;74.84
38466;BME280;24244;51.950;5.902;2023-08-21T01:14:39;102189.41;;;20.44;75.00
38466;BME280;24244;51.950;5.902;2023-08-21T01:17:10;102188.78;;;20.42;75.09
38466;BME280;24244;51.950;5.902;2023-08-21T01:19:43;102194.19;;;20.42;75.28
38466;BME280;24244;51.950;5.902;2023-08-21T01:22:11;102192.31;;;20.42;75.03
38466;BME280;24244;51.950;5.902;2023-08-21T01:24:40;102183.41;;;20.42;75.29
38466;BME280;24244;51.950;5.902;2023-08-21T01:27:07;102189.84;;;20.41;75.28
38466;BME280;24244;51.950;5.902;2023-08-21T01:29:34;102183.59;;;20.40;75.40
38466;BME280;24244;51.950;5.902;2023-08-21T01:32:06;102187.59;;;20.38;75.48
38466;BME280;24244;51.950;5.902;2023-08-21T01:34:35;102185.09;;;20.36;75.70
38466;BME280;24244;51.950;5.902;2023-08-21T01:37:04;102178.25;;;20.33;75.71
38466;BME280;24244;51.950;5.902;2023-08-21T01:39:31;102188.41;;;20.31;75.92
38466;BME280;24244;51.950;5.902;2023-08-21T01:41:59;102181.56;;;20.29;75.90
38466;BME280;24244;51.950;5.902;2023-08-21T01:44:29;102192.59;;;20.27;76.03
38466;BME280;24244;51.950;5.902;2023-08-21T01:46:56;102189.25;;;20.25;76.22
38466;BME280;24244;51.950;5.902;2023-08-21T01:49:22;102193.44;;;20.21;76.38
38466;BME280;24244;51.950;5.902;2023-08-21T01:51:50;102196.34;;;20.20;76.57
38466;BME280;24244;51.950;5.902;2023-08-21T01:54:17;102192.00;;;20.19;76.50
38466;BME280;24244;51.950;5.902;2023-08-21T01:56:44;102189.75;;;20.16;76.69
38466;BME280;24244;51.950;5.902;2023-08-21T01:59:16;102191.19;;;20.12;76.75
38466;BME280;24244;51.950;5.902;2023-08-21T02:01:43;102184.38;;;20.09;76.90
38466;BME280;24244;51.950;5.902;2023-08-21T02:04:10;102196.41;;;20.07;77.03
38466;BME280;24244;51.950;5.902;2023-08-21T02:06:37;102198.06;;;20.08;76.96
38466;BME280;24244;51.950;5.902;2023-08-21T02:09:04;102194.34;;;20.09;76.88
38466;BME280;24244;51.950;5.902;2023-08-21T02:11:30;102187.91;;;20.10;77.48
38466;BME280;24244;51.950;5.902;2023-08-21T02:13:57;102188.50;;;20.12;77.13
38466;BME280;24244;51.950;5.902;2023-08-21T02:16:26;102191.81;;;20.14;77.25
38466;BME280;24244;51.950;5.902;2023-08-21T02:18:52;102192.03;;;20.12;77.27
38466;BME280;24244;51.950;5.902;2023-08-21T02:21:20;102201.78;;;20.13;77.33
38466;BME280;24244;51.950;5.902;2023-08-21T02:23:47;102192.66;;;20.14;77.39
38466;BME280;24244;51.950;5.902;2023-08-21T02:26:13;102193.47;;;20.15;77.42
38466;BME280;24244;51.950;5.902;2023-08-21T02:28:40;102194.50;;;20.14;77.67
38466;BME280;24244;51.950;5.902;2023-08-21T02:31:09;102191.81;;;20.14;77.66
38466;BME280;24244;51.950;5.902;2023-08-21T02:33:38;102198.44;;;20.18;77.89
38466;BME280;24244;51.950;5.902;2023-08-21T02:36:06;102193.44;;;20.21;77.65
38466;BME280;24244;51.950;5.902;2023-08-21T02:38:34;102200.28;;;20.24;77.63
38466;BME280;24244;51.950;5.902;2023-08-21T02:41:00;102196.97;;;20.22;77.36
38466;BME280;24244;51.950;5.902;2023-08-21T02:43:27;102197.81;;;20.22;77.87
38466;BME280;24244;51.950;5.902;2023-08-21T02:45:54;102195.09;;;20.22;77.80
38466;BME280;24244;51.950;5.902;2023-08-21T02:48:21;102193.25;;;20.23;78.19
38466;BME280;24244;51.950;5.902;2023-08-21T02:50:49;102197.59;;;20.24;77.96
38466;BME280;24244;51.950;5.902;2023-08-21T02:53:16;102192.41;;;20.22;77.85
38466;BME280;24244;51.950;5.902;2023-08-21T02:55:43;102191.78;;;20.20;78.07
38466;BME280;24244;51.950;5.902;2023-08-21T02:58:10;102192.81;;;20.19;78.12
38466;BME280;24244;51.950;5.902;2023-08-21T03:00:37;102191.16;;;20.18;78.30
38466;BME280;24244;51.950;5.902;2023-08-21T03:03:04;102189.28;;;20.19;78.36
38466;BME280;24244;51.950;5.902;2023-08-21T03:05:31;102189.75;;;20.16;78.26
38466;BME280;24244;51.950;5.902;2023-08-21T03:07:59;102189.94;;;20.14;78.38
38466;BME280;24244;51.950;5.902;2023-08-21T03:10:26;102191.19;;;20.12;78.62
38466;BME280;24244;51.950;5.902;2023-08-21T03:12:55;102197.88;;;20.09;78.80
38466;BME280;24244;51.950;5.902;2023-08-21T03:15:21;102194.34;;;20.09;78.76
38466;BME280;24244;51.950;5.902;2023-08-21T03:17:48;102192.69;;;20.08;78.82
38466;BME280;24244;51.950;5.902;2023-08-21T03:20:15;102202.44;;;20.09;78.90
38466;BME280;24244;51.950;5.902;2023-08-21T03:22:44;102201.41;;;20.10;79.00
38466;BME280;24244;51.950;5.902;2023-08-21T03:25:12;102200.94;;;20.13;78.96
38466;BME280;24244;51.950;5.902;2023-08-21T03:27:39;102200.75;;;20.14;78.92
38466;BME280;24244;51.950;5.902;2023-08-21T03:30:07;102206.78;;;20.16;79.10
38466;BME280;24244;51.950;5.902;2023-08-21T03:32:36;102211.94;;;20.18;79.10
38466;BME280;24244;51.950;5.902;2023-08-21T03:35:04;102204.66;;;20.18;79.19
38466;BME280;24244;51.950;5.902;2023-08-21T03:37:31;102200.72;;;20.21;79.16
38466;BME280;24244;51.950;5.902;2023-08-21T03:39:58;102201.53;;;20.21;78.95
38466;BME280;24244;51.950;5.902;2023-08-21T03:42:26;102200.91;;;20.19;79.18
38466;BME280;24244;51.950;5.902;2023-08-21T03:44:54;102199.50;;;20.17;79.12
38466;BME280;24244;51.950;5.902;2023-08-21T03:47:21;102195.13;;;20.16;79.19
38466;BME280;24244;51.950;5.902;2023-08-21T03:49:48;102201.78;;;20.13;79.22
38466;BME280;24244;51.950;5.902;2023-08-21T03:52:16;102200.31;;;20.11;79.31
38466;BME280;24244;51.950;5.902;2023-08-21T03:54:43;102198.91;;;20.08;79.36
38466;BME280;24244;51.950;5.902;2023-08-21T03:57:09;102202.03;;;20.05;79.54
38466;BME280;24244;51.950;5.902;2023-08-21T03:59:38;102194.13;;;20.04;79.33
38466;BME280;24244;51.950;5.902;2023-08-21T04:02:04;102190.22;;;20.00;79.40
38466;BME280;24244;51.950;5.902;2023-08-21T04:04:31;102187.34;;;19.94;79.44
38466;BME280;24244;51.950;5.902;2023-08-21T04:06:58;102191.72;;;19.89;79.43
38466;BME280;24244;51.950;5.902;2023-08-21T04:09:25;102188.59;;;19.85;79.41
38466;BME280;24244;51.950;5.902;2023-08-21T04:11:55;102185.53;;;19.82;79.57
38466;BME280;24244;51.950;5.902;2023-08-21T04:14:22;102191.13;;;19.80;79.46
38466;BME280;24244;51.950;5.902;2023-08-21T04:16:50;102194.22;;;19.77;79.35
38466;BME280;24244;51.950;5.902;2023-08-21T04:19:20;102196.31;;;19.75;79.37
38466;BME280;24244;51.950;5.902;2023-08-21T04:21:47;102200.91;;;19.75;79.33
38466;BME280;24244;51.950;5.902;2023-08-21T04:24:13;102201.09;;;19.73;79.18
38466;BME280;24244;51.950;5.902;2023-08-21T04:26:40;102202.75;;;19.74;79.14
38466;BME280;24244;51.950;5.902;2023-08-21T04:29:08;102205.84;;;19.78;79.14
38466;BME280;24244;51.950;5.902;2023-08-21T04:31:34;102198.59;;;19.78;79.13
38466;BME280;24244;51.950;5.902;2023-08-21T04:34:03;102203.97;;;19.78;79.01
38466;BME280;24244;51.950;5.902;2023-08-21T04:36:30;102199.22;;;19.80;79.21
38466;BME280;24244;51.950;5.902;2023-08-21T04:38:57;102203.56;;;19.81;79.24
38466;BME280;24244;51.950;5.902;2023-08-21T04:41:24;102211.22;;;19.84;79.13
38466;BME280;24244;51.950;5.902;2023-08-21T04:43:51;102215.59;;;19.85;79.44
38466;BME280;24244;51.950;5.902;2023-08-21T04:46:18;102211.03;;;19.86;79.43
38466;BME280;24244;51.950;5.902;2023-08-21T04:49:00;102198.56;;;19.85;79.40
38466;BME280;24244;51.950;5.902;2023-08-21T04:51:28;102210.59;;;19.82;79.43
38466;BME280;24244;51.950;5.902;2023-08-21T04:53:55;102211.88;;;19.80;79.59
38466;BME280;24244;51.950;5.902;2023-08-21T04:56:21;102205.84;;;19.78;79.96
38466;BME280;24244;51.950;5.902;2023-08-21T04:58:54;102206.88;;;19.77;79.88
38466;BME280;24244;51.950;5.902;2023-08-21T05:01:25;102202.31;;;19.77;79.81
38466;BME280;24244;51.950;5.902;2023-08-21T05:03:51;102211.25;;;19.78;79.99
38466;BME280;24244;51.950;5.902;2023-08-21T05:06:18;102216.84;;;19.76;80.09
38466;BME280;24244;51.950;5.902;2023-08-21T05:08:48;102224.94;;;19.76;80.09
38466;BME280;24244;51.950;5.902;2023-08-21T05:11:15;102223.91;;;19.77;80.19
38466;BME280;24244;51.950;5.902;2023-08-21T05:13:42;102224.34;;;19.81;80.19
38466;BME280;24244;51.950;5.902;2023-08-21T05:16:09;102221.63;;;19.81;80.13
38466;BME280;24244;51.950;5.902;2023-08-21T05:18:38;102225.16;;;19.81;80.29
38466;BME280;24244;51.950;5.902;2023-08-21T05:21:05;102219.75;;;19.81;80.21
38466;BME280;24244;51.950;5.902;2023-08-21T05:23:32;102212.72;;;19.80;80.15
38466;BME280;24244;51.950;5.902;2023-08-21T05:26:00;102220.81;;;19.80;80.43
38466;BME280;24244;51.950;5.902;2023-08-21T05:28:29;102230.75;;;19.80;80.48
38466;BME280;24244;51.950;5.902;2023-08-21T05:30:57;102228.91;;;19.80;80.50
38466;BME280;24244;51.950;5.902;2023-08-21T05:33:24;102231.38;;;19.82;80.39
38466;BME280;24244;51.950;5.902;2023-08-21T05:35:56;102226.00;;;19.82;80.69
38466;BME280;24244;51.950;5.902;2023-08-21T05:38:24;102228.47;;;19.83;80.68
38466;BME280;24244;51.950;5.902;2023-08-21T05:40:51;102237.81;;;19.87;80.77
38466;BME280;24244;51.950;5.902;2023-08-21T05:43:26;102237.38;;;19.90;80.86
38466;BME280;24244;51.950;5.902;2023-08-21T05:45:54;102235.91;;;19.94;80.55
38466;BME280;24244;51.950;5.902;2023-08-21T05:48:21;102243.38;;;19.99;80.51
38466;BME280;24244;51.950;5.902;2023-08-21T05:50:51;102242.13;;;20.02;80.47
38466;BME280;24244;51.950;5.902;2023-08-21T05:53:18;102246.25;;;20.04;80.44
38466;BME280;24244;51.950;5.902;2023-08-21T05:55:46;102243.34;;;20.06;80.30
38466;BME280;24244;51.950;5.902;2023-08-21T05:58:13;102241.28;;;20.08;80.28
38466;BME280;24244;51.950;5.902;2023-08-21T06:00:46;102242.94;;;20.09;80.26
38466;BME280;24244;51.950;5.902;2023-08-21T06:03:14;102241.66;;;20.11;79.91
38466;BME280;24244;51.950;5.902;2023-08-21T06:05:41;102244.16;;;20.13;79.87
38466;BME280;24244;51.950;5.902;2023-08-21T06:08:10;102245.81;;;20.14;79.84
38466;BME280;24244;51.950;5.902;2023-08-21T06:10:37;102248.94;;;20.17;79.91
38466;BME280;24244;51.950;5.902;2023-08-21T06:13:03;102248.69;;;20.19;79.65
38466;BME280;24244;51.950;5.902;2023-08-21T06:15:31;102247.44;;;20.21;79.70
38466;BME280;24244;51.950;5.902;2023-08-21T06:17:59;102256.75;;;20.25;79.62
38466;BME280;24244;51.950;5.902;2023-08-21T06:20:26;102258.22;;;20.28;79.58
38466;BME280;24244;51.950;5.902;2023-08-21T06:22:53;102254.28;;;20.30;79.48
38466;BME280;24244;51.950;5.902;2023-08-21T06:25:20;102262.78;;;20.34;79.30
38466;BME280;24244;51.950;5.902;2023-08-21T06:27:47;102263.22;;;20.38;79.23
38466;BME280;24244;51.950;5.902;2023-08-21T06:30:25;102266.50;;;20.40;79.06
38466;BME280;24244;51.950;5.902;2023-08-21T06:32:52;102263.38;;;20.43;78.99
38466;BME280;24244;51.950;5.902;2023-08-21T06:35:20;102262.13;;;20.45;78.76
38466;BME280;24244;51.950;5.902;2023-08-21T06:37:48;102256.50;;;20.47;78.86
38466;BME280;24244;51.950;5.902;2023-08-21T06:40:15;102260.66;;;20.49;78.95
38466;BME280;24244;51.950;5.902;2023-08-21T06:42:43;102264.81;;;20.52;78.95
38466;BME280;24244;51.950;5.902;2023-08-21T06:45:10;102253.56;;;20.55;78.93
38466;BME280;24244;51.950;5.902;2023-08-21T06:47:38;102256.25;;;20.55;78.91
38466;BME280;24244;51.950;5.902;2023-08-21T06:50:07;102256.03;;;20.56;78.86
38466;BME280;24244;51.950;5.902;2023-08-21T06:52:35;102259.78;;;20.55;78.87
38466;BME280;24244;51.950;5.902;2023-08-21T06:55:06;102257.91;;;20.56;78.89
38466;BME280;24244;51.950;5.902;2023-08-21T06:57:33;102261.25;;;20.58;78.66
38466;BME280;24244;51.950;5.902;2023-08-21T07:00:02;102263.94;;;20.58;78.50
38466;BME280;24244;51.950;5.902;2023-08-21T07:02:29;102264.78;;;20.58;78.70
38466;BME280;24244;51.950;5.902;2023-08-21T07:04:57;102259.38;;;20.58;78.74
38466;BME280;24244;51.950;5.902;2023-08-21T07:07:24;102264.78;;;20.58;78.76
38466;BME280;24244;51.950;5.902;2023-08-21T07:09:53;102263.50;;;20.61;78.64
38466;BME280;24244;51.950;5.902;2023-08-21T07:12:21;102262.66;;;20.60;78.65
38466;BME280;24244;51.950;5.902;2023-08-21T07:14:48;102263.91;;;20.64;78.55
38466;BME280;24244;51.950;5.902;2023-08-21T07:17:16;102270.13;;;20.65;78.45
38466;BME280;24244;51.950;5.902;2023-08-21T07:19:43;102267.22;;;20.66;78.24
38466;BME280;24244;51.950;5.902;2023-08-21T07:22:13;102263.44;;;20.67;78.17
38466;BME280;24244;51.950;5.902;2023-08-21T07:24:40;102269.47;;;20.69;78.14
38466;BME280;24244;51.950;5.902;2023-08-21T07:27:08;102264.69;;;20.71;78.16
38466;BME280;24244;51.950;5.902;2023-08-21T07:29:35;102268.03;;;20.74;77.97
38466;BME280;24244;51.950;5.902;2023-08-21T07:32:04;102265.31;;;20.74;77.95
38466;BME280;24244;51.950;5.902;2023-08-21T07:34:31;102265.91;;;20.76;77.85
38466;BME280;24244;51.950;5.902;2023-08-21T07:36:59;102264.66;;;20.78;77.85
38466;BME280;24244;51.950;5.902;2023-08-21T07:39:26;102260.91;;;20.79;77.71
38466;BME280;24244;51.950;5.902;2023-08-21T07:41:53;102265.88;;;20.82;77.63
38466;BME280;24244;51.950;5.902;2023-08-21T07:44:22;102265.44;;;20.85;77.77
38466;BME280;24244;51.950;5.902;2023-08-21T07:46:54;102267.72;;;20.88;77.58
38466;BME280;24244;51.950;5.902;2023-08-21T07:49:23;102282.66;;;20.91;77.58
38466;BME280;24244;51.950;5.902;2023-08-21T07:51:54;102278.72;;;20.93;77.42
38466;BME280;24244;51.950;5.902;2023-08-21T07:54:28;102271.22;;;20.95;77.44
38466;BME280;24244;51.950;5.902;2023-08-21T07:57:01;102279.09;;;20.97;77.59
38466;BME280;24244;51.950;5.902;2023-08-21T07:59:39;102278.66;;;21.00;77.42
38466;BME280;24244;51.950;5.902;2023-08-21T08:02:40;102283.66;;;21.03;77.30
38466;BME280;24244;51.950;5.902;2023-08-21T08:05:30;102277.78;;;21.06;77.29
38466;BME280;24244;51.950;5.902;2023-08-21T08:08:11;102280.06;;;21.09;77.01
38466;BME280;24244;51.950;5.902;2023-08-21T08:10:48;102277.72;;;21.13;77.09
38466;BME280;24244;51.950;5.902;2023-08-21T08:13:23;102287.28;;;21.15;76.97
38466;BME280;24244;51.950;5.902;2023-08-21T08:16:30;102285.25;;;21.17;77.00
38466;BME280;24244;51.950;5.902;2023-08-21T08:19:10;102288.53;;;21.19;76.94
38466;BME280;24244;51.950;5.902;2023-08-21T08:21:55;102281.88;;;21.22;76.99
38466;BME280;24244;51.950;5.902;2023-08-21T08:24:29;102281.41;;;21.25;76.89
38466;BME280;24244;51.950;5.902;2023-08-21T08:27:15;102284.72;;;21.27;76.77
38466;BME280;24244;51.950;5.902;2023-08-21T08:29:57;102285.34;;;21.29;76.47
38466;BME280;24244;51.950;5.902;2023-08-21T08:32:45;102273.28;;;21.31;76.42
38466;BME280;24244;51.950;5.902;2023-08-21T08:35:15;102273.03;;;21.33;76.25
38466;BME280;24244;51.950;5.902;2023-08-21T08:37:50;102279.06;;;21.35;76.20
38466;BME280;24244;51.950;5.902;2023-08-21T08:40:24;102283.22;;;21.37;76.19
38466;BME280;24244;51.950;5.902;2023-08-21T08:42:53;102285.66;;;21.39;76.08
38466;BME280;24244;51.950;5.902;2023-08-21T08:45:28;102292.31;;;21.43;75.80
38466;BME280;24244;51.950;5.902;2023-08-21T08:48:00;102293.97;;;21.44;75.68
38466;BME280;24244;51.950;5.902;2023-08-21T08:50:29;102290.59;;;21.48;75.60
38466;BME280;24244;51.950;5.902;2023-08-21T08:53:18;102285.78;;;21.51;75.24
38466;BME280;24244;51.950;5.902;2023-08-21T08:55:45;102283.72;;;21.53;75.03
38466;BME280;24244;51.950;5.902;2023-08-21T08:58:13;102289.50;;;21.56;74.78
38466;BME280;24244;51.950;5.902;2023-08-21T09:00:40;102283.88;;;21.58;74.82
38466;BME280;24244;51.950;5.902;2023-08-21T09:03:09;102286.09;;;21.61;74.73
38466;BME280;24244;51.950;5.902;2023-08-21T09:05:39;102292.97;;;21.63;74.54
38466;BME280;24244;51.950;5.902;2023-08-21T09:08:10;102284.41;;;21.66;74.17
38466;BME280;24244;51.950;5.902;2023-08-21T09:10:38;102286.66;;;21.69;73.90
38466;BME280;24244;51.950;5.902;2023-08-21T09:13:11;102289.50;;;21.74;73.70
38466;BME280;24244;51.950;5.902;2023-08-21T09:15:38;102281.19;;;21.76;73.76
38466;BME280;24244;51.950;5.902;2023-08-21T09:18:09;102280.75;;;21.79;73.64
38466;BME280;24244;51.950;5.902;2023-08-21T09:20:37;102283.81;;;21.82;73.55
38466;BME280;24244;51.950;5.902;2023-08-21T09:23:05;102282.56;;;21.85;73.38
38466;BME280;24244;51.950;5.902;2023-08-21T09:25:35;102278.34;;;21.89;73.12
38466;BME280;24244;51.950;5.902;2023-08-21T09:28:07;102278.50;;;21.94;72.92
38466;BME280;24244;51.950;5.902;2023-08-21T09:30:45;102270.13;;;21.96;72.61
38466;BME280;24244;51.950;5.902;2023-08-21T09:33:16;102271.38;;;22.00;72.55
38466;BME280;24244;51.950;5.902;2023-08-21T09:35:43;102259.50;;;22.01;72.42
38466;BME280;24244;51.950;5.902;2023-08-21T09:38:12;102272.00;;;22.02;72.40
38466;BME280;24244;51.950;5.902;2023-08-21T09:40:41;102276.13;;;22.04;72.37
38466;BME280;24244;51.950;5.902;2023-08-21T09:43:09;102273.81;;;22.08;71.78
38466;BME280;24244;51.950;5.902;2023-08-21T09:45:39;102274.16;;;22.11;71.64
38466;BME280;24244;51.950;5.902;2023-08-21T09:48:07;102279.97;;;22.15;71.59
38466;BME280;24244;51.950;5.902;2023-08-21T09:50:36;102274.91;;;22.18;71.68
38466;BME280;24244;51.950;5.902;2023-08-21T09:53:06;102278.84;;;22.22;71.69
38466;BME280;24244;51.950;5.902;2023-08-21T09:55:33;102271.28;;;22.24;71.98
38466;BME280;24244;51.950;5.902;2023-08-21T09:58:02;102270.84;;;22.27;71.83
38466;BME280;24244;51.950;5.902;2023-08-21T10:00:30;102269.34;;;22.32;71.79
38466;BME280;24244;51.950;5.902;2023-08-21T10:03:00;102260.75;;;22.35;71.69
38466;BME280;24244;51.950;5.902;2023-08-21T10:05:29;102263.59;;;22.40;71.37
38466;BME280;24244;51.950;5.902;2023-08-21T10:08:00;102254.81;;;22.44;71.20
38466;BME280;24244;51.950;5.902;2023-08-21T10:10:30;102257.66;;;22.49;71.08
38466;BME280;24244;51.950;5.902;2023-08-21T10:12:58;102254.25;;;22.54;71.09
38466;BME280;24244;51.950;5.902;2023-08-21T10:15:27;102245.44;;;22.58;71.06
38466;BME280;24244;51.950;5.902;2023-08-21T10:17:55;102242.88;;;22.63;70.73
38466;BME280;24244;51.950;5.902;2023-08-21T10:20:24;102243.81;;;22.69;70.77
38466;BME280;24244;51.950;5.902;2023-08-21T10:22:53;102236.28;;;22.71;70.63
38466;BME280;24244;51.950;5.902;2023-08-21T10:25:24;102235.84;;;22.74;70.74
38466;BME280;24244;51.950;5.902;2023-08-21T10:27:56;102240.59;;;22.79;70.59
38466;BME280;24244;51.950;5.902;2023-08-21T10:30:25;102241.78;;;22.83;70.60
38466;BME280;24244;51.950;5.902;2023-08-21T10:32:54;102239.66;;;22.85;70.48
38466;BME280;24244;51.950;5.902;2023-08-21T10:35:23;102231.06;;;22.88;70.13
38466;BME280;24244;51.950;5.902;2023-08-21T10:38:07;102238.50;;;22.92;69.90
38466;BME280;24244;51.950;5.902;2023-08-21T10:40:37;102241.56;;;22.96;69.55
38466;BME280;24244;51.950;5.902;2023-08-21T10:43:05;102234.03;;;22.98;69.23
38466;BME280;24244;51.950;5.902;2023-08-21T10:45:55;102228.72;;;23.03;68.97
38466;BME280;24244;51.950;5.902;2023-08-21T10:48:22;102242.44;;;23.08;68.60
38466;BME280;24244;51.950;5.902;2023-08-21T10:50:50;102240.91;;;23.12;68.65
38466;BME280;24244;51.950;5.902;2023-08-21T10:53:17;102239.38;;;23.16;68.52
38466;BME280;24244;51.950;5.902;2023-08-21T10:55:52;102240.34;;;23.22;68.46
38466;BME280;24244;51.950;5.902;2023-08-21T10:58:20;102242.56;;;23.25;68.33
38466;BME280;24244;51.950;5.902;2023-08-21T11:00:56;102237.28;;;23.30;68.35
38466;BME280;24244;51.950;5.902;2023-08-21T11:03:23;102250.97;;;23.35;68.18
38466;BME280;24244;51.950;5.902;2023-08-21T11:06:00;102246.72;;;23.39;67.74
38466;BME280;24244;51.950;5.902;2023-08-21T11:08:28;102251.19;;;23.45;67.32
38466;BME280;24244;51.950;5.902;2023-08-21T11:10:56;102243.22;;;23.50;67.18
38466;BME280;24244;51.950;5.902;2023-08-21T11:13:24;102243.31;;;23.55;66.67
38466;BME280;24244;51.950;5.902;2023-08-21T11:15:57;102243.22;;;23.62;66.23
38466;BME280;24244;51.950;5.902;2023-08-21T11:18:30;102245.81;;;23.68;65.72
38466;BME280;24244;51.950;5.902;2023-08-21T11:21:03;102243.44;;;23.72;65.69
38466;BME280;24244;51.950;5.902;2023-08-21T11:23:32;102242.72;;;23.76;65.55
38466;BME280;24244;51.950;5.902;2023-08-21T11:26:00;102239.88;;;23.83;65.21
38466;BME280;24244;51.950;5.902;2023-08-21T11:28:45;102239.97;;;23.88;65.23
38466;BME280;24244;51.950;5.902;2023-08-21T11:31:12;102234.09;;;23.91;65.22
38466;BME280;24244;51.950;5.902;2023-08-21T11:33:39;102237.97;;;23.95;65.02
38466;BME280;24244;51.950;5.902;2023-08-21T11:36:06;102234.56;;;24.00;64.98
38466;BME280;24244;51.950;5.902;2023-08-21T11:38:33;102232.16;;;24.03;64.98
38466;BME280;24244;51.950;5.902;2023-08-21T11:41:05;102234.19;;;24.08;64.65
38466;BME280;24244;51.950;5.902;2023-08-21T11:43:35;102225.91;;;24.14;64.34
38466;BME280;24244;51.950;5.902;2023-08-21T11:46:03;102229.75;;;24.18;64.17
38466;BME280;24244;51.950;5.902;2023-08-21T11:48:30;102226.59;;;24.22;63.29
38466;BME280;24244;51.950;5.902;2023-08-21T11:50:57;102226.69;;;24.27;62.89
38466;BME280;24244;51.950;5.902;2023-08-21T11:53:31;102224.31;;;24.30;62.99
38466;BME280;24244;51.950;5.902;2023-08-21T11:55:59;102210.25;;;24.33;62.98
38466;BME280;24244;51.950;5.902;2023-08-21T11:58:27;102216.59;;;24.39;62.71
38466;BME280;24244;51.950;5.902;2023-08-21T12:01:02;102215.91;;;24.43;62.82
38466;BME280;24244;51.950;5.902;2023-08-21T12:03:30;102211.59;;;24.47;62.85
38466;BME280;24244;51.950;5.902;2023-08-21T12:06:05;102213.84;;;24.50;63.03
38466;BME280;24244;51.950;5.902;2023-08-21T12:08:31;102211.47;;;24.54;63.13
38466;BME280;24244;51.950;5.902;2023-08-21T12:10:58;102214.53;;;24.57;62.90
38466;BME280;24244;51.950;5.902;2023-08-21T12:13:25;102212.13;;;24.61;62.81
38466;BME280;24244;51.950;5.902;2023-08-21T12:15:57;102207.88;;;24.65;62.77
38466;BME280;24244;51.950;5.902;2023-08-21T12:18:24;102209.59;;;24.71;62.53
38466;BME280;24244;51.950;5.902;2023-08-21T12:20:50;102206.16;;;24.76;62.57
38466;BME280;24244;51.950;5.902;2023-08-21T12:23:17;102203.78;;;24.79;62.08
38466;BME280;24244;51.950;5.902;2023-08-21T12:25:44;102201.38;;;24.83;61.54
38466;BME280;24244;51.950;5.902;2023-08-21T12:28:12;102193.56;;;24.86;61.06
38466;BME280;24244;51.950;5.902;2023-08-21T12:30:39;102202.66;;;24.92;60.22
38466;BME280;24244;51.950;5.902;2023-08-21T12:33:07;102207.34;;;24.96;60.53
38466;BME280;24244;51.950;5.902;2023-08-21T12:35:49;102201.97;;;25.02;60.46
38466;BME280;24244;51.950;5.902;2023-08-21T12:38:15;102198.53;;;25.06;60.51
38466;BME280;24244;51.950;5.902;2023-08-21T12:40:42;102192.56;;;25.09;60.50
38466;BME280;24244;51.950;5.902;2023-08-21T12:43:09;102192.91;;;25.13;60.30
38466;BME280;24244;51.950;5.902;2023-08-21T12:45:36;102191.56;;;25.15;60.49
38466;BME280;24244;51.950;5.902;2023-08-21T12:48:04;102190.25;;;25.18;59.82
38466;BME280;24244;51.950;5.902;2023-08-21T12:50:32;102198.50;;;25.23;60.05
38466;BME280;24244;51.950;5.902;2023-08-21T12:52:59;102196.13;;;25.26;59.99
38466;BME280;24244;51.950;5.902;2023-08-21T12:55:26;102186.66;;;25.29;60.03
38466;BME280;24244;51.950;5.902;2023-08-21T12:57:53;102185.31;;;25.31;59.47
38466;BME280;24244;51.950;5.902;2023-08-21T13:00:21;102189.44;;;25.34;59.87